NWS Home NWS Lubbock West Texas Mesonet                      Daily Summary For 05/13/2021

Latest   N   C   S   Daily Sum   3hrΔ   24hrΔ   Soil Data 
Site Map   24hr Precip   72hr Precip   Google Plot


Station Time of Last Max Temp Min Temp Max/Min Dew Pt. Max/Min RH 10m Avg Wind 2m Avg Wind Peak Gust @ 33ft (mph) Potential Evapotranspiration
mm/day or in/day
Rain Sum Solar Rad
MJ/m^2
% Clear Day Red Flag
Abernathy 5ENE 11:59 PM 84 69 70 /52 75 / 24 10.2  (SE) 8.1 29.6 mph 197° @ 0116 PM 2.8 or 0.11 0.00 28.1 207.3 0
Adrian 6WSW 11:59 PM 84 69 70 /52 75 / 24 16.9  (SE) 13.2 33.2 mph 190° @ 0629 PM 3.6 or 0.14 0.00 21.5 165.1 0
Aiken 3WSW 11:59 PM 84 69 70 /52 75 / 24 9.5  (SE) 7 22.1 mph 138° @ 0830 PM 2.5 or 0.1 0.00 27.7 206 0
Amarillo 15NNW 11:59 PM 84 69 70 /52 75 / 24 12  (E) 8.1 28.1 mph 237° @ 0258 PM 3 or 0.12 0.00 21.2 165.3 0
Amarillo 7SSE 11:59 PM 84 69 70 /52 75 / 24 11.5  (SE) 8.2 27.2 mph 157° @ 1128 PM 2.8 or 0.11 0.00 21.6 165.7 0
Amarillo 9NNE 11:59 PM 84 69 70 /52 75 / 24 12.9  (E) 9.8 28.1 mph 152° @ 1027 PM 3 or 0.12 0.00 23 178.8 0
Amherst 1NE 11:59 PM 84 69 70 /52 75 / 24 10.8  (SE) 8.4 26.3 mph 133° @ 1043 PM 3 or 0.12 0.00 24.6 181.5 0
Andrews 2E 11:59 PM 84 69 70 /52 75 / 24 8.6  (E) 5.5 19.7 mph 150° @ 0647 PM 2.8 or 0.11 0.00 25 174.6 0
Anton 6SSW 11:55 PM 84 69 70 /52 75 / 24 10.7  (SE) 8.6 25.6 mph 131° @ 0945 PM 2.8 or 0.11 0.00 27.5 201.2 0
Aspermont 3NE 11:59 PM 84 69 70 /52 75 / 24 3.8  (SE) 1.3 16.4 mph 98° @ 0630 PM 1.5 or 0.06 0.00 19.9 145.1 0
Big Bend NP - Castolon 11:59 PM 84 69 70 /52 75 / 24 7.2  (W) 5.9 18.9 mph 15° @ 0752 PM 4.1 or 0.16 0.00 25.3 161.8 0
Big Bend NP - Persimmon Gap 11:59 PM 84 69 70 /52 75 / 24 17.2  (NE) 14.1 28.8 mph 37° @ 0853 AM 4.8 or 0.19 0.00 25.4 164.1 0
Big Lake 1WNW 11:59 PM 84 69 70 /52 75 / 24 6.9  (E) 5.3 20.2 mph 89° @ 1004 PM 3 or 0.12 0.00 26.1 176.7 0
Bootleg 11WNW 11:59 PM 84 69 70 /52 75 / 24 14.1  (SE) 10.6 28.8 mph 171° @ 0320 PM 3 or 0.12 0.00 20.6 155.9 0
Borger 7E 11:59 PM 84 69 70 /52 75 / 24 12.6  (E) 9.2 30.7 mph 150° @ 0759 PM 2.8 or 0.11 0.00 21.3 168.1 0
Boys Ranch 1WSW 11:59 PM 84 69 70 /52 75 / 24 7.9  (E) 5.9 24.9 mph 203° @ 0438 PM 2.3 or 0.09 0.00 19.8 155.2 0
Brownfield 2S 11:59 PM 84 69 70 /52 75 / 24 9.5  (E) 7.8 23 mph 123° @ 0826 PM 2.8 or 0.11 0.00 28.6 205.3 0
Canadian 6E 11:59 PM 84 69 70 /52 75 / 24 9  (E) 5.9 27.6 mph 187° @ 0151 PM 2 or 0.08 0.00 23.3 186.5 0
Caprock Canyons State Park 11:59 PM 84 69 70 /52 75 / 24 9.5  (S) 6.7 23.8 mph 171° @ 0754 PM 2.5 or 0.1 0.00 28.4 214.5 0
Childress 2NNE 11:55 PM 84 69 70 /52 75 / 24 7.8  (E) 5.4 22 mph 123° @ 0640 PM 2.3 or 0.09 0.00 24.7 187.5 0
Clarendon 2WSW 11:55 PM 84 69 70 /52 75 / 24 9.4  (E) 6.4 23.6 mph 155° @ 1040 PM 2.3 or 0.09 0.00 24.9 191.1 0
Claude 12SW 11:59 PM 84 69 70 /52 75 / 24 9.7  (E) 6.4 25 mph 148° @ 1021 PM 2.5 or 0.1 0.00 24.6 188.1 0
Clyde 2WNW 11:59 PM 84 69 70 /52 75 / 24 4.8  (E) 3.1 14.8 mph 120° @ 1148 PM 1.5 or 0.06 0.00 14.4 102.2 0
Colorado City 5NW 11:59 PM 84 69 70 /52 75 / 24 6.3  (E) 3.7 16.7 mph 92° @ 1241 PM 2.3 or 0.09 0.00 25.9 183.7 0
Comanche Springs 11:59 PM 84 69 70 /52 75 / 24 4.7  (W) 3.1 19.7 mph 143° @ 0421 PM 1.8 or 0.07 0.00 27.3 205.1 0
Coyanosa 2N 11:59 PM 84 69 70 /52 75 / 24 11.8  (E) 8.6 23 mph 133° @ 1149 PM 4.1 or 0.16 0.00 26.6 180.6 0
Crane 1NNW 11:59 PM 84 69 70 /52 75 / 24 10.8  (E) 9.3 28.9 mph 107° @ 1215 AM 3.8 or 0.15 0.00 26 177.7 0
Crowell 1E 11:59 PM 84 69 70 /52 75 / 24 5.8  (E) 4.5 16.4 mph 152° @ 0511 PM 2 or 0.08 0.00 26.2 196.7 0
Dell City 11:59 PM 84 69 70 /52 75 / 24 8.3  (SE) 6 26.2 mph 133° @ 0658 PM 3 or 0.12 0.00 28.5 196.3 0
Denver City 7WNW 11:55 PM 84 69 70 /52 75 / 24 10.8  (SE) 8.1 20 mph 149° @ 0800 PM 3 or 0.12 0.00 26.1 185.9 0
Dimmitt 2NE 11:55 PM 84 69 70 /52 75 / 24 12.8  (E) 10.1 25.1 mph 156° @ 1125 PM 2.8 or 0.11 0.00 21.7 162.8 0
Doole 3WNW 11:59 PM 84 69 70 /52 75 / 24 6  (NE) 4.9 22.5 mph 85° @ 0550 PM 2 or 0.08 0.00 16.2 111.7 0
Dora NM 2SW 11:55 PM 84 69 70 /52 75 / 24 15.5  (SE) 12.2 28.2 mph 159° @ 0730 PM 3.6 or 0.14 0.00 23.9 175.1 0
Dozier 3W 11:59 PM 84 69 70 /52 75 / 24 7.1  (NE) 4 20.5 mph 140° @ 0636 PM 2 or 0.08 0.00 22.5 174.8 0
Earth 9WSW 11:59 PM 84 69 70 /52 75 / 24 10.8  (SE) 7.8 26.1 mph 141° @ 1041 PM 3 or 0.12 0.00 23.9 177.7 0
Endee NM 2SW 11:59 PM 84 69 70 /52 75 / 24 13.8  (SE) 10.5 27.6 mph 184° @ 0200 PM 3.3 or 0.13 0.00 20.2 154.6 0
Estelline 3SSE 11:59 PM 84 69 70 /52 75 / 24 6.3  (SE) 3.9 19.8 mph 134° @ 0345 PM 2 or 0.08 0.00 27.2 206.9 0
Floydada 2NNE 11:55 PM 84 69 70 /52 75 / 24 8.6  (E) 6.3 22.9 mph 154° @ 0145 PM 2.3 or 0.09 0.00 26.4 195.3 0
Fluvanna 3WNW 11:55 PM 84 69 70 /52 75 / 24 7.3  (E) 5.4 20.2 mph 107° @ 1045 PM 2.5 or 0.1 0.00 29.2 208.9 0
Fort Chadbourne 11:59 PM 84 69 70 /52 75 / 24 5.4  (NE) 3.7 17 mph 116° @ 0800 PM 2 or 0.08 0.00 17.9 125.6 0
Fort Lancaster 11:59 PM 84 69 70 /52 75 / 24 6.5  (NE) 4.5 21.3 mph 142° @ 1016 PM 3 or 0.12 0.00 24.3 162.9 0
Fort Lewis CO 11:59 PM 84 69 70 /52 75 / 24 8.6  (NW) 6.5 41.4 mph 285° @ 0327 PM 1.8 or 0.07 0.00 32.7 263.6 2
Fort McKavett 11:59 PM 84 69 70 /52 75 / 24 5.5  (NE) 2.7 15.9 mph 33° @ 1205 AM 2.5 or 0.1 0.00 23.6 158.6 0
Friona 2NE 11:55 PM 84 69 70 /52 75 / 24 13.3  (SE) 10.5 27 mph 192° @ 0205 PM 3 or 0.12 0.00 22.7 170.9 0
Fritch 1WNW 11:59 PM 84 69 70 /52 75 / 24 12  (SE) 9.4 34.8 mph 161° @ 1107 PM 3 or 0.12 0.00 20.4 160.4 0
Gail 2ESE 11:59 PM 84 69 70 /52 75 / 24 5.6  (SE) 3.7 19.7 mph 98° @ 1058 PM 2.3 or 0.09 0.00 30.1 214.6 0
Goodlett 3W 11:55 PM 84 69 70 /52 75 / 24 6.7  (E) 4.9 19.7 mph 125° @ 0410 PM 2 or 0.08 0.00 26.8 203.8 0
Goodnight 11:59 PM 84 69 70 /52 75 / 24 10.4  (SE) 7.2 25.4 mph 139° @ 0806 PM 2.5 or 0.1 0.00 21.4 164.7 0
Graham 5SSW 11:59 PM 84 69 70 /52 75 / 24 7.7  (E) 5.7 30.7 mph 113° @ 0128 PM 2.5 or 0.1 0.00 30.5 219.7 0
Guadalupe Mtns Natl Park 11:59 PM 84 69 70 /52 75 / 24 6.5  (N) 4.6 18.6 mph 12° @ 0226 AM 2.3 or 0.09 0.00 27.7 187.3 0
Guthrie 10WSW 11:59 PM 84 69 70 /52 75 / 24 5.3  (E) 3.3 17.5 mph 138° @ 0640 PM 2 or 0.08 0.00 26.8 197.5 0
Hackberry 2SSE 11:59 PM 84 69 70 /52 75 / 24 5.6  (SE) 4.3 19.5 mph 111° @ 0456 PM 2 or 0.08 0.00 24 179.6 0
Happy 1E 11:59 PM 84 69 70 /52 75 / 24 11.5  (E) 8.5 26.5 mph 152° @ 0924 PM 2.8 or 0.11 0.00 26.5 201 0
Hart 3N 11:55 PM 84 69 70 /52 75 / 24 10  (E) 6.7 24.9 mph 144° @ 0920 PM 2.5 or 0.1 0.00 24.6 184.3 0
Haskell 1NW 11:55 PM 84 69 70 /52 75 / 24 4.3  (SE) 3 14.7 mph 130° @ 1130 PM 1.5 or 0.06 0.00 16.4 119.8 0
Hefner 1SW 11:59 PM 84 69 70 /52 75 / 24 4.8  (E) 2.9 17.3 mph 120° @ 0221 PM 1.8 or 0.07 0.00 20.2 149 0
Hereford 2NW 11:55 PM 84 69 70 /52 75 / 24 10.2  (E) 8.1 28.2 mph 152° @ 1045 PM 2.5 or 0.1 0.00 22.6 171.9 0
Hobbs NM 5NW 11:59 PM 84 69 70 /52 75 / 24 10.6  (E) 8.3 21.7 mph 135° @ 0809 PM 3 or 0.12 0.00 26.3 186.2 0
Jayton 1SSE 11:55 PM 84 69 70 /52 75 / 24 5.8  (E) 3.8 18.1 mph 127° @ 0355 PM 1.8 or 0.07 0.00 22.1 161.2 0
Junction 1SSW 11:59 PM 84 69 70 /52 75 / 24 6.2  (NE) 4.8 15.4 mph 22° @ 0237 PM 2.5 or 0.1 0.00 23.3 155.8 0
Kent 9E 11:59 PM 84 69 70 /52 75 / 24 8.7  (SE) 6.1 23.9 mph 74° @ 0503 PM 3 or 0.12 0.00 25.1 167.9 0
Knox City 3NW 11:59 PM 84 69 70 /52 75 / 24 4.4  (E) 2.6 21.9 mph 157° @ 0526 PM 1.8 or 0.07 0.00 22.4 164.9 0
Lake Alan Henry 1NW 11:59 PM 84 69 70 /52 75 / 24 5.3  (E) 3.1 22.5 mph 142° @ 0559 PM 2.3 or 0.09 0.00 27.9 202 0
Lake McClellan 2NW 11:59 PM 84 69 70 /52 75 / 24 11  (E) 8.4 26.2 mph 122° @ 0724 PM 2.5 or 0.1 0.03 21.7 168 0
Lamesa 1S 11:55 PM 84 69 70 /52 75 / 24 7.4  (SE) 4.7 21.3 mph 92° @ 1050 PM 2.8 or 0.11 0.00 6.1 215.1 0
Lesley 2S 11:59 PM 84 69 70 /52 75 / 24 9  (E) 6.6 27.9 mph 144° @ 0434 PM 2.5 or 0.1 0.00 26.6 203.5 0
Levelland 4S 11:59 PM 84 69 70 /52 75 / 24 9.8  (SE) 8.1 24.1 mph 130° @ 1031 PM 2.8 or 0.11 0.00 26.5 192.8 0
Lomax 1SSE 11:59 PM 84 69 70 /52 75 / 24 7.3  (E) 5.7 23.1 mph 128° @ 1142 PM 2.8 or 0.11 0.00 27.5 192.2 0
Lubbock 3WNW TTU 11:55 PM 84 69 70 /52 75 / 24 8.1  (E) 4.6 24.8 mph 126° @ 1110 PM 2.8 or 0.11 0.00 29.8 217.9 0
Lubbock 4SE 11:59 PM 84 69 70 /52 75 / 24 8.2  (SE) 5.3 26.3 mph 150° @ 0351 PM 2.5 or 0.1 0.00 29.7 216.5 0
McAdoo 3NNW 11:59 PM 84 69 70 /52 75 / 24 8  (E) 5.7 24.1 mph 154° @ 0618 PM 2.3 or 0.09 0.00 29.5 216.8 0
McCamey 1SSW 11:59 PM 84 69 70 /52 75 / 24 8.4  (E) 7.5 22.2 mph 72° @ 1203 AM 3.3 or 0.13 0.00 25.7 173.9 0
McLean 1E 11:55 PM 84 69 70 /52 75 / 24 9.7  (E) 7.6 23 mph 144° @ 0745 PM 2 or 0.08 0.00 21.9 169.9 0
Memphis 1NE 11:59 PM 84 69 70 /52 75 / 24 6.7  (NE) 4.8 23 mph 117° @ 0801 PM 2.3 or 0.09 0.00 26.5 203.3 0
Menard 2NW 11:59 PM 84 69 70 /52 75 / 24 5.7  (NE) 4.7 14.7 mph 107° @ 0606 PM 2 or 0.08 0.00 17.8 120.5 0
Mertzon 3NNE 11:59 PM 84 69 70 /52 75 / 24 6.5  (E) 5.1 16.2 mph 87° @ 0807 PM 2.5 or 0.1 0.00 23.6 161 0
Morton 1ENE 11:55 PM 84 69 70 /52 75 / 24 10.1  (SE) 7.9 27 mph 182° @ 0145 PM 2.8 or 0.11 0.00 24.5 179.1 0
Muleshoe 2SSW 11:55 PM 84 69 70 /52 75 / 24 10.2  (SE) 7.6 25.6 mph 143° @ 1135 PM 2.8 or 0.11 0.00 25.4 188.7 0
New Home 11:59 PM 84 69 70 /52 75 / 24 6.9  (E) 3 24.9 mph 189° @ 0542 PM 2.5 or 0.1 0.00 29.3 211.8 0
Northfield 1S 11:55 PM 84 69 70 /52 75 / 24 7.2  (SE) 4.8 21.6 mph 162° @ 0255 PM 2.3 or 0.09 0.00 27.3 206.4 0
O'Donnell 1N 11:59 PM 84 69 70 /52 75 / 24 7.7  (SE) 5.8 23 mph 101° @ 1059 PM 2.5 or 0.1 0.00 29.2 208.8 0
Odell 4ENE 11:59 PM 84 69 70 /52 75 / 24 5.5  (E) 3.8 17.1 mph 129° @ 0537 PM 1.8 or 0.07 0.00 26.3 200 0
Olton 6S 11:55 PM 84 69 70 /52 75 / 24 10.6  (E) 8.4 26.7 mph 168° @ 0545 PM 2.8 or 0.11 0.00 26.2 193.9 0
Paducah 10SW 11:59 PM 84 69 70 /52 75 / 24 6.5  (SE) 3.7 23 mph 129° @ 0312 PM 2 or 0.08 0.00 26.7 198.6 0
Palo Duro 4E (JA Ranch) 11:59 PM 84 69 70 /52 75 / 24 8.2  (E) 6.6 24.6 mph 131° @ 0720 PM 2.3 or 0.09 0.00 22.3 171.3 0
Palo Duro Canyon SP Floor 11:59 PM 84 69 70 /52 75 / 24 5.6  (SE) 2.7 22.2 mph 147° @ 0954 PM 2 or 0.08 0.00 20.7 158.9 0
Palo Duro Canyon State Park Rim 11:59 PM 84 69 70 /52 75 / 24 8.6  (E) 4.4 24.9 mph 156° @ 1050 PM 2.5 or 0.1 0.00 21.1 161.4 0
Palo Duro Reservoir 1NW 11:59 PM 84 69 70 /52 75 / 24 12.8  (SE) 9.1 28.5 mph 216° @ 0134 PM 2.8 or 0.11 0.00 26.7 216.1 0
Pampa 2E 11:55 PM 84 69 70 /52 75 / 24 12.4  (E) 8.9 28.7 mph 147° @ 1145 PM 2.5 or 0.1 0.00 22.4 175.3 0
Panhandle 1SSW 11:59 PM 84 69 70 /52 75 / 24 11.8  (E) 8.7 27.6 mph 141° @ 0800 PM 2.3 or 0.09 0.00 20 154.8 0
Plains 3N 11:55 PM 84 69 70 /52 75 / 24 10.8  (SE) 9.1 21.8 mph 139° @ 0635 PM 2.8 or 0.11 0.00 25.6 183.7 0
Plainview 1S 11:59 PM 84 69 70 /52 75 / 24 8.3  (E) 6.2 24.1 mph 144° @ 1014 PM 2.5 or 0.1 0.00 29.3 218 0
Post 1NE 11:59 PM 84 69 70 /52 75 / 24 5.7  (E) 3.1 20.8 mph 112° @ 0804 PM 2.3 or 0.09 0.00 30.3 219.5 0
Ralls 1SE 11:59 PM 84 69 70 /52 75 / 24 7.9  (E) 5.2 26.3 mph 145° @ 0544 PM 2.3 or 0.09 0.00 28.8 211.2 0
Reese Center 11:59 PM 84 69 70 /52 75 / 24 10.6  (SE) 8.5 27.4 mph 131° @ 1151 PM 3 or 0.12 0.00 29.3 213.7 0
Roaring Springs 3N 11:59 PM 84 69 70 /52 75 / 24 7.4  (SE) 5.3 19.7 mph 142° @ 1008 PM 2.3 or 0.09 0.00 28.7 213.3 0
Romero 11SSW 11:59 PM 84 69 70 /52 75 / 24 11.3  (NE) 8.3 29.1 mph 213° @ 0339 PM 3 or 0.12 0.00 20.5 159.6 0
Rotan 5W 11:59 PM 84 69 70 /52 75 / 24 6.1  (E) 4.7 19.7 mph 121° @ 0511 PM 2 or 0.08 0.00 28.6 205.7 0
San Angelo 7NW 11:55 PM 84 69 70 /52 75 / 24 8.7  (E) 6 19.1 mph 98° @ 0725 PM 3 or 0.12 0.00 23.2 160.1 0
Seagraves 1SW 11:59 PM 84 69 70 /52 75 / 24 6.9  (E) 4.6 21.9 mph 189° @ 0253 PM 2.5 or 0.1 0.00 25.8 183.7 0
Segovia 7SSW 11:59 PM 84 69 70 /52 75 / 24 6.5  (NE) 4.6 15.3 mph 44° @ 1241 PM 2.8 or 0.11 0.00 26 172 0
Seminole 2NNE 11:55 PM 84 69 70 /52 75 / 24 9.3  (SE) 7.1 20.5 mph 160° @ 0405 PM 2.3 or 0.09 0.00 5.1 36 0
Seymour 3NW 11:55 PM 84 69 70 /52 75 / 24 5  (E) 3.4 14.1 mph 121° @ 0515 PM 1.8 or 0.07 0.00 17.7 131.7 0
Sierra Blanca 1SSE 11:59 PM 84 69 70 /52 75 / 24 9.3  (SE) 7.1 31 mph 203° @ 0751 PM 3.6 or 0.14 0.00 24.1 160.4 0
Silverton 7ESE 11:55 PM 84 69 70 /52 75 / 24 9.7  (E) 6.9 24.8 mph 133° @ 0805 PM 2.3 or 0.09 0.00 22.3 167.9 0
Slaton 2NE 11:59 PM 84 69 70 /52 75 / 24 8  (SE) 6.1 24.1 mph 121° @ 0715 PM 2.5 or 0.1 0.00 30.1 219 0
Smyer 11:59 PM 84 69 70 /52 75 / 24 8.2  (E) 6.6 24 mph 124° @ 0945 PM 2.5 or 0.1 0.00 30.1 219.1 0
Snyder 3E 11:55 PM 84 69 70 /52 75 / 24 7.1  (E) 2.7 18.2 mph 94° @ 1010 PM 2.3 or 0.09 0.00 23.3 166.1 0
Snyder 3SSW 11:59 PM 84 69 70 /52 75 / 24 6  (E) 3.9 17.5 mph 122° @ 0425 PM 2.3 or 0.09 0.00 27 192.7 0
South Plains 3ENE 11:59 PM 84 69 70 /52 75 / 24 7.4  (E) 5.3 22.2 mph 152° @ 0458 PM 2.3 or 0.09 0.00 23.6 176.5 0
Spur 1W 11:55 PM 84 69 70 /52 75 / 24 5.3  (E) 3.3 17.5 mph 157° @ 0305 PM 2 or 0.08 0.00 28.4 207.8 0
St. Lawrence 5SW 11:59 PM 84 69 70 /52 75 / 24 10.1  (E) 8.8 26.3 mph 110° @ 1045 PM 3.3 or 0.13 0.00 27.6 189.4 0
Stamford 5ESE 11:59 PM 84 69 70 /52 75 / 24 4.7  (E) 3.5 15.4 mph 121° @ 0721 PM 1.5 or 0.06 0.00 15.5 111.9 0
Sterling City 4WSW 11:59 PM 84 69 70 /52 75 / 24 6.5  (E) 4.7 18.7 mph 100° @ 0800 PM 2.5 or 0.1 0.00 22.5 155.9 0
Stinnett 1NNW 11:59 PM 84 69 70 /52 75 / 24 12  (E) 8.2 30.5 mph 171° @ 1144 PM 2.8 or 0.11 0.00 24.9 196.7 0
Stratford 4WNW 11:59 PM 84 69 70 /52 75 / 24 14.9  (SE) 9.8 35.1 mph 195° @ 1147 AM 2.8 or 0.11 0.00 30 241.3 0
Sundown 8WSW 11:55 PM 84 69 70 /52 75 / 24 9.5  (SE) 6.2 20.6 mph 148° @ 0535 PM 2.8 or 0.11 0.00 22.8 165.1 0
Sweetwater 11SW 11:59 PM 84 69 70 /52 75 / 24 7.1  (E) 5.4 19.4 mph 124° @ 1139 PM 2.3 or 0.09 0.00 25.8 181.6 0
Tahoka 3NNE 11:59 PM 84 69 70 /52 75 / 24 6.8  (E) 4.3 18.8 mph 106° @ 1023 PM 2.5 or 0.1 0.00 29.7 214.6 0
Tarzan 2WNW 11:59 PM 84 69 70 /52 75 / 24 9  (E) 5.9 20.2 mph 116° @ 1151 PM 3 or 0.12 0.00 26 182.1 0
Tatum NM 2SW 11:55 PM 84 69 70 /52 75 / 24 12.1  (SE) 9 28.3 mph 156° @ 0520 PM 3.3 or 0.13 0.00 25.8 185.1 0
Throckmorton 1SW 11:59 PM 84 69 70 /52 75 / 24 3.6  (N) 1.4 13.3 mph 131° @ 0703 PM 1.5 or 0.06 0.00 17.9 131 0
Truscott 2SE 11:59 PM 84 69 70 /52 75 / 24 5  (E) 3 15.6 mph 136° @ 1152 PM 1.8 or 0.07 0.00 23.4 174 0
Tulia 2ENE 11:55 PM 84 69 70 /52 75 / 24 10.4  (E) 7.6 24.5 mph 170° @ 0500 PM 2.8 or 0.11 0.00 23.2 174.5 0
Turkey 2WSW 11:55 PM 84 69 70 /52 75 / 24 9  (SE) 7.2 23.7 mph 132° @ 0250 PM 2.5 or 0.1 0.00 25.3 191.3 0
Umbarger 3NNE 11:59 PM 84 69 70 /52 75 / 24 12.9  (SE) 9.6 30.8 mph 153° @ 1032 PM 3 or 0.12 0.00 23.5 179.8 0
Van Horn 3ENE 11:59 PM 84 69 70 /52 75 / 24 7.4  (N) 5.2 19.6 mph 17° @ 1218 PM 3.3 or 0.13 0.00 25.8 172.2 0
Vega 4E 11:59 PM 84 69 70 /52 75 / 24 13.6  (SE) 10.7 30.7 mph 158° @ 1121 PM 3 or 0.12 0.00 23.7 182.7 0
Vigo Park 11:59 PM 84 69 70 /52 75 / 24 10.2  (SE) 6.6 23.5 mph 141° @ 0748 PM 2.8 or 0.11 0.00 23.7 179.2 0
Wall 2E 11:59 PM 84 69 70 /52 75 / 24 8.6  (NE) 7.3 19.4 mph 102° @ 0627 PM 2.5 or 0.1 0.00 21.5 147.3 0
Weinert 2NNE 11:59 PM 84 69 70 /52 75 / 24 4.2  (E) 2.9 13.2 mph 146° @ 1057 PM 1.5 or 0.06 0.00 17.5 128.7 0
Welch 11:59 PM 84 69 70 /52 75 / 24 8.4  (SE) 6.5 21.6 mph 112° @ 1057 PM 2.8 or 0.11 0.00 29.1 208.1 0
Wellington 6SE 11:59 PM 84 69 70 /52 75 / 24 7.9  (E) 5.9 23 mph 138° @ 0711 PM 2.3 or 0.09 0.00 25.3 194.4 0
White River Lake 6NW 11:59 PM 84 69 70 /52 75 / 24 6.7  (E) 4.7 18.6 mph 109° @ 1042 PM 2.3 or 0.09 0.00 30.6 224 0
Wolfforth 6SSW 11:59 PM 84 69 70 /52 75 / 24 9.1  (SE) 6.9 25.2 mph 123° @ 1116 PM 2.8 or 0.11 0.00 29.6 214.8 0

WestTexas Mesonet Home    Site Map/Menu  National Weather Service Lubbock   Soil Data   Latest Observation Page   Previous  Date   Next Last